createdAt,value
2022-08-30T00:01:37.777Z,57.83
2022-08-30T00:04:08.293Z,57.94
2022-08-30T00:06:36.296Z,58.16
2022-08-30T00:09:04.505Z,58.16
2022-08-30T00:11:34.896Z,58.34
2022-08-30T00:14:05.184Z,58.22
2022-08-30T00:16:36.954Z,58.31
2022-08-30T00:19:07.094Z,58.43
2022-08-30T00:21:35.276Z,58.20
2022-08-30T00:24:05.880Z,58.38
2022-08-30T00:26:33.986Z,58.49
2022-08-30T00:29:02.355Z,58.45
2022-08-30T00:31:30.386Z,58.54
2022-08-30T00:34:02.137Z,58.78
2022-08-30T00:36:32.688Z,59.08
2022-08-30T00:39:00.646Z,59.33
2022-08-30T00:41:29.024Z,59.50
2022-08-30T00:43:57.065Z,59.58
2022-08-30T00:46:27.654Z,59.72
2022-08-30T00:48:57.261Z,59.69
2022-08-30T00:51:31.189Z,59.79
2022-08-30T00:53:59.622Z,60.00
2022-08-30T00:56:29.918Z,59.86
2022-08-30T00:59:00.828Z,59.97
2022-08-30T01:01:34.282Z,59.91
2022-08-30T01:04:06.860Z,59.81
2022-08-30T01:06:40.023Z,60.17
2022-08-30T01:09:09.698Z,60.35
2022-08-30T01:11:38.985Z,60.39
2022-08-30T01:14:07.871Z,60.31
2022-08-30T01:16:36.974Z,60.58
2022-08-30T01:19:05.446Z,60.63
2022-08-30T01:21:42.391Z,60.78
2022-08-30T01:24:14.661Z,60.75
2022-08-30T01:26:42.667Z,60.93
2022-08-30T01:29:19.015Z,60.94
2022-08-30T01:31:46.957Z,61.05
2022-08-30T01:34:15.550Z,60.87
2022-08-30T01:36:45.778Z,60.98
2022-08-30T01:39:17.429Z,61.29
2022-08-30T01:41:46.258Z,61.39
2022-08-30T01:44:15.443Z,61.41
2022-08-30T01:46:47.412Z,61.39
2022-08-30T01:49:18.955Z,61.53
2022-08-30T01:52:00.595Z,61.78
2022-08-30T01:54:38.342Z,61.72
2022-08-30T01:57:10.864Z,61.78
2022-08-30T01:59:42.645Z,62.09
2022-08-30T02:02:11.260Z,62.05
2022-08-30T02:04:39.321Z,61.68
2022-08-30T02:07:14.865Z,62.17
2022-08-30T02:09:48.923Z,62.18
2022-08-30T02:12:19.632Z,62.51
2022-08-30T02:14:47.813Z,62.58
2022-08-30T02:17:19.542Z,62.66
2022-08-30T02:19:47.699Z,62.65
2022-08-30T02:22:18.311Z,62.72
2022-08-30T02:24:46.351Z,63.05
2022-08-30T02:27:16.060Z,62.99
2022-08-30T02:29:44.136Z,62.83
2022-08-30T02:32:14.829Z,62.85
2022-08-30T02:34:42.981Z,62.75
2022-08-30T02:37:11.371Z,62.67
2022-08-30T02:39:39.434Z,62.85
2022-08-30T02:42:07.535Z,62.78
2022-08-30T02:44:37.003Z,63.11
2022-08-30T02:47:05.550Z,63.13
2022-08-30T02:49:34.245Z,63.22
2022-08-30T02:52:05.157Z,63.43
2022-08-30T02:54:33.551Z,63.49
2022-08-30T02:57:05.103Z,63.57
2022-08-30T02:59:41.774Z,63.53
2022-08-30T03:02:14.273Z,63.65
2022-08-30T03:04:44.350Z,63.64
2022-08-30T03:07:17.426Z,63.76
2022-08-30T03:09:45.818Z,63.77
2022-08-30T03:12:13.825Z,63.81
2022-08-30T03:14:45.840Z,63.90
2022-08-30T03:17:15.674Z,63.90
2022-08-30T03:19:47.220Z,64.15
2022-08-30T03:22:17.394Z,64.29
2022-08-30T03:24:45.962Z,64.35
2022-08-30T03:27:14.116Z,64.58
2022-08-30T03:29:42.399Z,64.53
2022-08-30T03:32:12.045Z,64.67
2022-08-30T03:34:40.082Z,64.80
2022-08-30T03:37:08.649Z,64.92
2022-08-30T03:39:36.767Z,64.97
2022-08-30T03:42:05.439Z,65.00
2022-08-30T03:44:33.674Z,64.81
2022-08-30T03:47:01.987Z,64.93
2022-08-30T03:49:31.735Z,65.17
2022-08-30T03:52:00.297Z,65.17
2022-08-30T03:54:28.389Z,65.17
2022-08-30T03:56:57.044Z,65.16
2022-08-30T03:59:25.103Z,65.16
2022-08-30T04:01:53.929Z,65.50
2022-08-30T04:04:21.967Z,65.48
2022-08-30T04:06:54.068Z,65.93
2022-08-30T04:09:22.093Z,65.69
2022-08-30T04:11:51.011Z,65.90
2022-08-30T04:14:23.267Z,66.21
2022-08-30T04:16:51.573Z,66.34
2022-08-30T04:19:19.764Z,66.53
2022-08-30T04:21:47.961Z,66.50
2022-08-30T04:24:17.693Z,66.48
2022-08-30T04:26:45.605Z,66.86
2022-08-30T04:29:16.738Z,67.04
2022-08-30T04:31:45.158Z,67.20
2022-08-30T04:34:14.421Z,67.20
2022-08-30T04:36:48.064Z,67.47
2022-08-30T04:39:18.614Z,67.67
2022-08-30T04:41:46.906Z,67.69
2022-08-30T04:44:19.421Z,68.02
2022-08-30T04:46:50.694Z,68.31
2022-08-30T04:49:21.754Z,68.46
2022-08-30T04:51:50.235Z,68.30
2022-08-30T04:54:19.907Z,68.42
2022-08-30T04:56:47.864Z,68.57
2022-08-30T05:02:37.852Z,69.14
2022-08-30T05:05:24.545Z,69.07
2022-08-30T05:07:52.766Z,69.29
2022-08-30T05:10:20.712Z,69.34
2022-08-30T05:12:54.571Z,69.60
2022-08-30T05:15:25.011Z,69.50
2022-08-30T05:17:54.621Z,69.24
2022-08-30T05:20:25.197Z,69.02
2022-08-30T05:22:53.547Z,68.73
2022-08-30T05:25:23.683Z,68.46
2022-08-30T05:27:51.659Z,68.02
2022-08-30T05:30:20.869Z,67.75
2022-08-30T05:32:51.450Z,67.01
2022-08-30T05:35:25.728Z,66.77
2022-08-30T05:37:56.215Z,66.41
2022-08-30T05:40:24.700Z,65.88
2022-08-30T05:42:54.903Z,65.74
2022-08-30T05:45:23.169Z,65.10
2022-08-30T05:47:53.243Z,65.01
2022-08-30T05:50:23.457Z,64.86
2022-08-30T05:52:51.412Z,64.63
2022-08-30T05:55:23.634Z,64.58
2022-08-30T05:57:56.381Z,64.53
2022-08-30T06:00:24.783Z,65.02
2022-08-30T06:02:55.372Z,64.65
2022-08-30T06:05:27.439Z,64.30
2022-08-30T06:07:55.390Z,64.00
2022-08-30T06:10:26.077Z,63.61
2022-08-30T06:12:56.630Z,63.36
2022-08-30T06:15:24.715Z,62.97
2022-08-30T06:17:52.867Z,62.47
2022-08-30T06:20:20.912Z,61.81
2022-08-30T06:22:50.501Z,61.20
2022-08-30T06:25:18.627Z,60.32
2022-08-30T06:27:46.944Z,59.63
2022-08-30T06:30:17.590Z,58.88
2022-08-30T06:32:49.136Z,58.13
2022-08-30T06:35:17.511Z,57.27
2022-08-30T06:37:45.600Z,56.20
2022-08-30T06:40:21.571Z,53.21
2022-08-30T06:42:50.523Z,52.19
2022-08-30T06:45:18.649Z,50.85
2022-08-30T06:47:49.617Z,50.32
2022-08-30T06:50:20.017Z,49.01
2022-08-30T06:52:48.277Z,46.66
2022-08-30T06:55:18.440Z,46.23
2022-08-30T06:57:47.135Z,44.45
2022-08-30T07:00:18.405Z,43.63
2022-08-30T07:02:46.601Z,43.24
2022-08-30T07:05:18.605Z,41.85
2022-08-30T07:07:54.359Z,42.45
2022-08-30T07:10:23.839Z,41.73
2022-08-30T07:12:54.561Z,42.35
2022-08-30T07:15:25.195Z,42.13
2022-08-30T07:18:14.994Z,42.75
2022-08-30T07:20:43.036Z,42.69
2022-08-30T07:23:18.740Z,42.52
2022-08-30T07:25:48.112Z,41.10
2022-08-30T07:28:16.581Z,38.89
2022-08-30T07:30:44.617Z,39.87
2022-08-30T07:33:12.900Z,38.65
2022-08-30T07:35:41.295Z,38.34
2022-08-30T07:38:13.754Z,38.51
2022-08-30T07:40:42.165Z,37.41
2022-08-30T07:43:18.934Z,36.13
2022-08-30T07:45:47.272Z,35.89
2022-08-30T07:48:20.079Z,35.85
2022-08-30T07:50:48.495Z,35.46
2022-08-30T07:53:16.733Z,35.53
2022-08-30T07:55:44.823Z,35.64
2022-08-30T07:58:18.980Z,34.84
2022-08-30T08:00:47.273Z,34.74
2022-08-30T08:03:17.424Z,34.91
2022-08-30T08:05:48.259Z,34.76
2022-08-30T08:08:18.522Z,33.23
2022-08-30T08:10:47.208Z,33.12
2022-08-30T08:13:15.355Z,31.76
2022-08-30T08:15:45.082Z,32.17
2022-08-30T08:18:15.622Z,31.87
2022-08-30T08:20:43.870Z,31.17
2022-08-30T08:23:13.985Z,31.80
2022-08-30T08:25:42.504Z,31.55
2022-08-30T08:28:10.700Z,31.52
2022-08-30T08:30:38.898Z,30.04
2022-08-30T08:33:09.433Z,30.30
2022-08-30T08:35:37.668Z,29.64
2022-08-30T08:38:08.268Z,29.50
2022-08-30T08:40:49.237Z,29.63
2022-08-30T08:43:22.700Z,28.57
2022-08-30T08:46:02.100Z,27.86
2022-08-30T08:48:58.985Z,28.51
2022-08-30T08:51:50.826Z,28.39
2022-08-30T08:54:25.372Z,27.49
2022-08-30T08:56:55.690Z,26.41
2022-08-30T08:59:23.715Z,25.27
2022-08-30T09:01:58.203Z,25.40
2022-08-30T09:04:34.903Z,26.39
2022-08-30T09:07:10.213Z,26.22
2022-08-30T09:09:41.246Z,25.41
2022-08-30T09:12:13.312Z,25.07
2022-08-30T09:14:46.108Z,25.19
2022-08-30T09:17:18.809Z,24.78
2022-08-30T09:19:59.956Z,25.04
2022-08-30T09:22:34.697Z,24.70
2022-08-30T09:25:05.922Z,24.54
2022-08-30T09:27:38.584Z,25.00
2022-08-30T09:30:15.074Z,24.67
2022-08-30T09:32:53.513Z,24.78
2022-08-30T09:35:34.505Z,24.94
2022-08-30T09:38:07.580Z,24.43
2022-08-30T09:40:40.156Z,25.12
2022-08-30T09:43:12.004Z,26.04
2022-08-30T09:45:42.699Z,27.46
2022-08-30T09:48:32.992Z,26.59
2022-08-30T09:51:14.050Z,25.69
2022-08-30T09:56:54.416Z,23.46
2022-08-30T09:59:41.123Z,24.18
2022-08-30T10:03:43.649Z,23.40
2022-08-30T10:06:19.651Z,23.21
2022-08-30T10:08:59.516Z,22.00
2022-08-30T10:11:33.736Z,22.04
2022-08-30T10:14:43.710Z,22.34
2022-08-30T10:17:17.484Z,21.37
2022-08-30T10:19:58.534Z,22.02
2022-08-30T10:22:32.682Z,21.00
2022-08-30T10:25:08.231Z,21.07
2022-08-30T10:27:44.838Z,22.05
2022-08-30T10:30:15.239Z,22.02
2022-08-30T10:32:51.258Z,21.68
2022-08-30T10:35:24.152Z,21.22
2022-08-30T10:37:56.899Z,22.38
2022-08-30T10:40:49.932Z,21.21
2022-08-30T10:43:27.526Z,20.92
2022-08-30T10:46:01.745Z,20.55
2022-08-30T10:48:33.617Z,22.05
2022-08-30T10:51:11.524Z,21.83
2022-08-30T10:53:43.295Z,20.92
2022-08-30T10:56:15.295Z,21.79
2022-08-30T10:58:44.512Z,21.15
2022-08-30T11:01:37.708Z,21.38
2022-08-30T11:04:55.495Z,21.61
2022-08-30T11:07:37.071Z,20.80
2022-08-30T11:10:25.875Z,21.24
2022-08-30T11:13:09.101Z,22.12
2022-08-30T11:15:57.556Z,21.11
2022-08-30T11:18:27.493Z,21.89
2022-08-30T11:21:16.933Z,21.12
2022-08-30T11:24:02.399Z,21.84
2022-08-30T11:26:57.257Z,21.21
2022-08-30T11:29:40.678Z,21.77
2022-08-30T11:32:59.895Z,21.29
2022-08-30T11:35:47.320Z,21.68
2022-08-30T11:38:41.204Z,21.95
2022-08-30T11:41:12.746Z,21.94
2022-08-30T11:43:56.147Z,21.78
2022-08-30T11:46:40.145Z,21.97
2022-08-30T11:49:46.213Z,20.96
2022-08-30T11:52:52.857Z,21.55
2022-08-30T11:55:47.394Z,21.07
2022-08-30T11:58:37.580Z,21.49
2022-08-30T12:01:50.507Z,21.52
2022-08-30T12:04:15.341Z,21.53
2022-08-30T12:06:53.799Z,22.07
2022-08-30T12:10:09.677Z,22.43
2022-08-30T12:12:50.925Z,23.04
2022-08-30T12:15:58.528Z,23.47
2022-08-30T12:18:33.617Z,25.29
2022-08-30T12:21:09.744Z,25.26
2022-08-30T12:23:49.971Z,25.21
2022-08-30T12:26:30.484Z,25.48
2022-08-30T12:29:18.400Z,26.33
2022-08-30T12:31:53.424Z,26.54
2022-08-30T12:34:28.277Z,27.04
2022-08-30T12:37:03.085Z,27.18
2022-08-30T12:39:38.112Z,27.08
2022-08-30T12:42:18.014Z,27.04
2022-08-30T12:44:47.696Z,26.38
2022-08-30T12:47:23.751Z,27.10
2022-08-30T12:49:53.272Z,26.12
2022-08-30T12:52:29.519Z,25.97
2022-08-30T12:55:17.373Z,26.62
2022-08-30T12:58:00.594Z,26.36
2022-08-30T13:00:31.740Z,27.15
2022-08-30T13:03:16.339Z,27.21
2022-08-30T13:05:48.193Z,26.74
2022-08-30T13:08:22.442Z,26.89
2022-08-30T13:10:57.109Z,26.15
2022-08-30T13:13:35.348Z,26.30
2022-08-30T13:16:26.411Z,26.31
2022-08-30T13:19:22.954Z,25.67
2022-08-30T13:21:53.625Z,25.88
2022-08-30T13:24:25.828Z,25.83
2022-08-30T13:26:56.564Z,26.31
2022-08-30T13:29:29.287Z,26.29
2022-08-30T13:32:00.072Z,26.82
2022-08-30T13:34:33.078Z,26.39
2022-08-30T13:37:01.557Z,26.79
2022-08-30T13:39:31.875Z,26.95
2022-08-30T13:44:57.642Z,26.89
2022-08-30T13:47:34.572Z,26.88
2022-08-30T13:50:05.561Z,27.22
2022-08-30T13:52:34.149Z,27.06
2022-08-30T13:55:03.214Z,27.58
2022-08-30T14:00:22.202Z,27.47
2022-08-30T14:02:54.683Z,27.25
2022-08-30T14:11:06.299Z,26.62
2022-08-30T14:13:34.476Z,27.02
2022-08-30T14:18:59.186Z,26.50
2022-08-30T14:21:29.342Z,26.93
2022-08-30T14:24:01.058Z,27.96
2022-08-30T14:26:33.823Z,28.67
2022-08-30T14:29:06.142Z,29.35
2022-08-30T14:31:38.189Z,29.12
2022-08-30T14:34:11.051Z,28.79
2022-08-30T14:36:44.512Z,28.24
2022-08-30T14:39:15.793Z,28.10
2022-08-30T14:41:47.067Z,27.85
2022-08-30T14:44:19.036Z,28.06
2022-08-30T14:46:51.210Z,28.49
2022-08-30T14:49:20.153Z,28.27
2022-08-30T14:51:49.940Z,28.14
2022-08-30T14:54:25.556Z,27.87
2022-08-30T14:56:56.681Z,28.07
2022-08-30T14:59:26.618Z,27.76
2022-08-30T15:04:38.346Z,28.12
2022-08-30T15:07:09.407Z,27.83
2022-08-30T15:09:39.979Z,27.76
2022-08-30T15:12:08.689Z,28.38
2022-08-30T15:14:37.014Z,28.60
2022-08-30T15:19:54.850Z,28.51
2022-08-30T15:22:25.054Z,27.85
2022-08-30T15:24:55.562Z,27.91
2022-08-30T15:27:23.884Z,28.38
2022-08-30T15:29:52.452Z,28.37
2022-08-30T15:32:20.588Z,28.78
2022-08-30T15:34:55.899Z,28.80
2022-08-30T15:37:27.946Z,28.87
2022-08-30T15:39:58.784Z,28.71
2022-08-30T15:42:27.569Z,28.64
2022-08-30T15:44:57.843Z,28.87
2022-08-30T15:47:34.056Z,28.45
2022-08-30T15:50:05.510Z,28.75
2022-08-30T15:52:35.135Z,28.56
2022-08-30T15:55:03.537Z,28.35
2022-08-30T15:57:31.660Z,28.44
2022-08-30T16:00:09.179Z,28.56
2022-08-30T16:02:37.686Z,28.66
2022-08-30T16:05:08.102Z,28.82
2022-08-30T16:07:40.795Z,28.45
2022-08-30T16:10:10.586Z,28.53
2022-08-30T16:12:38.654Z,28.40
2022-08-30T16:15:07.423Z,28.39
2022-08-30T16:17:35.747Z,28.75
2022-08-30T16:20:08.787Z,28.88
2022-08-30T16:22:38.294Z,28.71
2022-08-30T16:25:07.200Z,28.75
2022-08-30T16:27:42.116Z,28.88
2022-08-30T16:30:14.106Z,29.19
2022-08-30T16:32:42.358Z,29.35
2022-08-30T16:35:10.633Z,29.40
2022-08-30T16:37:41.162Z,29.58
2022-08-30T16:40:12.079Z,29.85
2022-08-30T16:42:42.800Z,29.77
2022-08-30T16:45:13.858Z,29.84
2022-08-30T16:47:41.945Z,30.06
2022-08-30T16:50:12.355Z,30.07
2022-08-30T16:52:44.395Z,30.13
2022-08-30T16:55:12.666Z,30.59
2022-08-30T16:57:41.083Z,30.61
2022-08-30T17:00:13.383Z,30.96
2022-08-30T17:02:48.080Z,31.23
2022-08-30T17:05:27.188Z,30.63
2022-08-30T17:07:56.834Z,31.07
2022-08-30T17:10:26.310Z,30.78
2022-08-30T17:12:59.804Z,30.58
2022-08-30T17:15:27.991Z,31.06
2022-08-30T17:17:59.450Z,30.73
2022-08-30T17:20:31.147Z,30.85
2022-08-30T17:23:02.691Z,30.99
2022-08-30T17:25:34.011Z,31.50
2022-08-30T17:28:02.300Z,31.41
2022-08-30T17:30:31.285Z,31.10
2022-08-30T17:33:04.117Z,31.21
2022-08-30T17:35:34.273Z,31.65
2022-08-30T17:38:06.290Z,31.35
2022-08-30T17:40:34.539Z,31.51
2022-08-30T17:43:03.225Z,31.44
2022-08-30T17:45:33.539Z,32.24
2022-08-30T17:48:04.514Z,32.24
2022-08-30T17:50:33.342Z,32.27
2022-08-30T17:53:04.369Z,32.61
2022-08-30T17:55:33.727Z,32.39
2022-08-30T17:58:03.036Z,32.58
2022-08-30T18:00:33.644Z,33.07
2022-08-30T18:03:02.885Z,32.86
2022-08-30T18:05:35.002Z,33.36
2022-08-30T18:08:09.830Z,33.74
2022-08-30T18:10:41.564Z,33.72
2022-08-30T18:13:12.262Z,34.25
2022-08-30T18:15:44.110Z,34.35
2022-08-30T18:18:12.809Z,34.28
2022-08-30T18:20:43.170Z,34.85
2022-08-30T18:23:12.626Z,34.87
2022-08-30T18:25:42.247Z,35.12
2022-08-30T18:28:12.496Z,35.52
2022-08-30T18:30:41.487Z,35.26
2022-08-30T18:33:10.723Z,35.61
2022-08-30T18:35:42.885Z,35.70
2022-08-30T18:38:16.029Z,35.56
2022-08-30T18:40:46.628Z,35.65
2022-08-30T18:43:17.089Z,35.64
2022-08-30T18:45:53.142Z,35.49
2022-08-30T18:48:21.509Z,35.47
2022-08-30T18:50:51.787Z,35.58
2022-08-30T18:53:29.249Z,35.69
2022-08-30T18:55:59.059Z,35.88
2022-08-30T18:58:29.748Z,36.06
2022-08-30T19:00:57.765Z,36.37
2022-08-30T19:03:26.253Z,36.16
2022-08-30T19:06:03.427Z,36.51
2022-08-30T19:08:33.456Z,36.60
2022-08-30T19:11:07.464Z,36.92
2022-08-30T19:13:36.335Z,37.03
2022-08-30T19:16:05.609Z,37.58
2022-08-30T19:18:33.828Z,37.56
2022-08-30T19:21:04.829Z,37.89
2022-08-30T19:23:36.407Z,37.99
2022-08-30T19:26:08.788Z,37.73
2022-08-30T19:28:41.978Z,37.84
2022-08-30T19:31:10.326Z,38.03
2022-08-30T19:33:38.733Z,38.29
2022-08-30T19:36:07.349Z,38.33
2022-08-30T19:38:36.327Z,38.58
2022-08-30T19:41:05.066Z,38.87
2022-08-30T19:43:34.450Z,39.07
2022-08-30T19:46:03.095Z,39.18
2022-08-30T19:48:32.659Z,39.54
2022-08-30T19:51:06.853Z,39.63
2022-08-30T19:53:35.629Z,39.60
2022-08-30T19:56:06.979Z,39.99
2022-08-30T19:58:36.756Z,40.32
2022-08-30T20:01:10.708Z,40.02
2022-08-30T20:05:38.115Z,40.68
2022-08-30T20:08:06.297Z,40.65
2022-08-30T20:10:36.009Z,40.98
2022-08-30T20:13:05.937Z,41.10
2022-08-30T20:15:39.743Z,41.34
2022-08-30T20:18:14.754Z,41.20
2022-08-30T20:20:49.306Z,41.19
2022-08-30T20:23:21.628Z,41.53
2022-08-30T20:25:56.046Z,41.54
2022-08-30T20:28:25.480Z,41.50
2022-08-30T20:30:55.978Z,42.18
2022-08-30T20:33:26.118Z,42.26
2022-08-30T20:35:55.770Z,42.67
2022-08-30T20:38:24.086Z,42.67
2022-08-30T20:40:54.712Z,43.18
2022-08-30T20:43:25.504Z,42.85
2022-08-30T20:45:55.349Z,43.19
2022-08-30T20:48:26.024Z,43.27
2022-08-30T20:50:55.833Z,43.35
2022-08-30T20:53:26.307Z,43.26
2022-08-30T20:55:54.534Z,43.40
2022-08-30T20:58:27.503Z,43.30
2022-08-30T21:00:58.468Z,43.92
2022-08-30T21:03:27.862Z,44.05
2022-08-30T21:05:57.681Z,44.13
2022-08-30T21:08:26.504Z,43.57
2022-08-30T21:10:55.093Z,43.69
2022-08-30T21:13:23.471Z,44.22
2022-08-30T21:16:00.279Z,44.43
2022-08-30T21:18:29.958Z,44.45
2022-08-30T21:21:08.492Z,44.53
2022-08-30T21:23:39.908Z,44.42
2022-08-30T21:26:08.845Z,44.22
2022-08-30T21:28:40.082Z,44.33
2022-08-30T21:31:09.383Z,44.60
2022-08-30T21:33:37.971Z,44.49
2022-08-30T21:36:26.252Z,44.56
2022-08-30T21:38:55.190Z,45.03
2022-08-30T21:41:29.518Z,45.20
2022-08-30T21:44:01.908Z,45.06
2022-08-30T21:46:34.666Z,45.06
2022-08-30T21:49:07.335Z,44.90
2022-08-30T21:51:39.550Z,44.82
2022-08-30T21:54:09.740Z,45.45
2022-08-30T21:56:39.967Z,45.80
2022-08-30T21:59:09.517Z,46.80
2022-08-30T22:01:38.376Z,47.31
2022-08-30T22:04:10.041Z,47.95
2022-08-30T22:06:45.111Z,48.07
2022-08-30T22:09:15.243Z,48.19
2022-08-30T22:11:44.918Z,48.17
2022-08-30T22:14:12.947Z,48.59
2022-08-30T22:16:43.653Z,49.16
2022-08-30T22:19:12.102Z,49.03
2022-08-30T22:21:44.731Z,49.56
2022-08-30T22:24:13.353Z,49.66
2022-08-30T22:26:41.795Z,50.35
2022-08-30T22:29:10.633Z,50.12
2022-08-30T22:31:41.254Z,50.46
2022-08-30T22:34:11.009Z,50.48
2022-08-30T22:36:39.915Z,50.63
2022-08-30T22:39:10.277Z,50.86
2022-08-30T22:41:41.363Z,50.49
2022-08-30T22:44:09.918Z,50.01
2022-08-30T22:46:38.942Z,49.69
2022-08-30T22:49:09.088Z,49.50
2022-08-30T22:51:40.676Z,49.82
2022-08-30T22:54:11.398Z,49.86
2022-08-30T22:56:44.424Z,49.89
2022-08-30T22:59:12.430Z,49.45
2022-08-30T23:01:43.223Z,49.79
2022-08-30T23:04:12.044Z,49.87
2022-08-30T23:06:50.170Z,50.02
2022-08-30T23:09:22.854Z,50.40
2022-08-30T23:11:53.259Z,50.94
2022-08-30T23:14:23.600Z,51.33
2022-08-30T23:16:51.739Z,51.44
2022-08-30T23:19:19.878Z,52.18
2022-08-30T23:21:48.016Z,52.36
2022-08-30T23:24:33.632Z,52.64
2022-08-30T23:27:20.473Z,53.26
2022-08-30T23:30:08.188Z,53.24
2022-08-30T23:32:53.820Z,53.56
2022-08-30T23:35:39.122Z,53.57
2022-08-30T23:38:27.446Z,54.08
2022-08-30T23:41:12.869Z,54.06
2022-08-30T23:44:00.450Z,54.04
2022-08-30T23:46:46.216Z,54.32
2022-08-30T23:49:31.723Z,54.25
2022-08-30T23:52:19.937Z,54.49
2022-08-30T23:55:05.752Z,54.69
2022-08-30T23:57:51.106Z,54.65
